METAR Data
IDs: Format: Raw Decoded Include TAF

Data at: 0521 UTC 26 Sep 2018

KANB 260453Z AUTO 00000KT 10SM CLR 23/21 A3011 RMK AO2 SLP187 T02280211
KANB 260353Z AUTO 00000KT 10SM CLR 24/21 A3012 RMK AO2 SLP190 T02440211
KANB 260253Z AUTO 00000KT 10SM CLR 25/21 A3012 RMK AO2 SLP188 T02500211 51020
KANB 260227Z AUTO 00000KT 10SM CLR 26/21 A3011 RMK AO2 T02560211
KANB 260212Z AUTO 22003KT 10SM VCTS CLR 25/21 A3011 RMK AO2 T02500211
KANB 260153Z AUTO 00000KT 10SM CLR 26/21 A3010 RMK AO2 SLP182 T02610211
KANB 260053Z AUTO 00000KT 10SM OVC090 27/21 A3007 RMK AO2 SLP173 T02720211
KANB 252353Z AUTO 15004KT 10SM FEW110 28/21 A3005 RMK AO2 SLP167 T02780211 10317 20278 53004
KANB 252253Z AUTO 14004KT 10SM BKN100 29/21 A3005 RMK AO2 SLP164 T02890211
KANB 252153Z AUTO 16004KT 10SM BKN050 30/21 A3004 RMK AO2 SLP162 T03000206
KANB 252053Z AUTO 18008KT 10SM FEW055 32/19 A3004 RMK AO2 SLP162 T03170194 56023
KANB 251953Z AUTO 17007KT 10SM SCT049 SCT060 BKN080 31/21 A3006 RMK AO2 SLP167 T03110206
KANB 251853Z AUTO VRB05KT 10SM SCT039 BKN048 BKN060 29/21 A3008 RMK AO2 SLP177 T02940206
KANB 251753Z AUTO 19008KT 10SM SCT039 SCT050 BKN070 29/20 A3011 RMK AO2 SLP187 T02940200 10300 20239 58013
KANB 251653Z AUTO 18007KT 10SM FEW036 FEW060 29/21 A3012 RMK AO2 SLP191 T02890211
KANB 251612Z AUTO 21007KT 10SM SCT026 SCT033 BKN042 28/22 A3014 RMK AO2 T02780217
KANB 251553Z AUTO 18006KT 10SM BKN026 BKN034 OVC048 28/22 A3014 RMK AO2 SLP198 T02830217
KANB 251453Z AUTO VRB06KT 10SM BKN018 OVC034 27/22 A3015 RMK AO2 SLP201 T02720222 51006
KANB 251411Z AUTO VRB04KT 10SM OVC016 26/23 A3015 RMK AO2 T02610228
KANB 251353Z AUTO 12006KT 10SM OVC014 26/22 A3015 RMK AO2 SLP201 T02560222
KANB 251253Z AUTO 00000KT 10SM OVC014 24/22 A3014 RMK AO2 SLP198 T02440222
KANB 251153Z AUTO VRB03KT 10SM OVC018 24/22 A3013 RMK AO2 SLP197 70072 T02390222 10239 20222 53010
KANB 251053Z AUTO 05004KT 10SM BKN019 BKN024 23/22 A3012 RMK AO2 SLP190 T02330217
KANB 251032Z AUTO 06003KT 10SM BKN019 BKN080 23/22 A3012 RMK AO2 T02330217
KANB 250953Z AUTO 05003KT 10SM SCT031 SCT036 BKN075 23/22 A3011 RMK AO2 SLP188 T02330217
KANB 250918Z AUTO 06004KT 10SM FEW015 BKN037 23/22 A3011 RMK AO2 T02330217
KANB 250853Z AUTO 05005KT 10SM OVC015 23/22 A3010 RMK AO2 SLP183 T02280217 55002
KANB 250827Z AUTO 03005KT 10SM OVC015 23/22 A3010 RMK AO2 T02280217
KANB 250808Z AUTO 07003KT 10SM OVC014 23/22 A3010 RMK AO2 T02280217
KANB 250753Z AUTO 02005KT 10SM OVC016 23/22 A3010 RMK AO2 SLP183 T02280217
KANB 250744Z AUTO 02004KT 10SM BKN016 BKN075 23/22 A3010 RMK AO2 T02280217
KANB 250653Z AUTO 02003KT 10SM CLR 22/21 A3011 RMK AO2 SLP184 T02220211
KANB 250553Z AUTO 06006KT 10SM BKN030 22/21 A3011 RMK AO2 RAE27 SLP187 P0001 60034 T02220211 10228 20211 403170211 50004
KANB 250453Z AUTO 03004KT 10SM -RA FEW037 BKN060 OVC075 23/22 A3012 RMK AO2 SLP191 P0001 T02280217
KANB 250353Z AUTO VRB04KT 10SM -RA FEW060 FEW120 22/21 A3012 RMK AO2 RAE20B46 SLP191 P0001 T02220211
KANB 250253Z AUTO 07003KT 10SM -RA FEW100 22/21 A3010 RMK AO2 RAE04B20 SLP183 P0000 60031 T02220211 51008
KANB 250153Z AUTO 07005KT 10SM -RA FEW095 FEW110 22/21 A3010 RMK AO2 LTG DSNT NE AND E SLP184 P0004 T02170206
KANB 250053Z AUTO 00000KT 8SM -RA BKN110 22/21 A3008 RMK AO2 LTG DSNT N-SE TSE40 SLP180 P0027 T02170206
KANB 250043Z AUTO 32006KT 7SM -RA FEW065 BKN100 OVC110 22/21 A3008 RMK AO2 LTG DSNT N-SE TSE40 P0025 T02170206
KANB 250013Z AUTO 22007KT 3SM -TSRA BR FEW007 BKN036 OVC065 21/20 A3007 RMK AO2 LTG DSNT N-SE P0015 T02110200
KANB 250009Z AUTO 25007KT 1 3/4SM +TSRA BR FEW007 SCT017 OVC034 21/20 A3007 RMK AO2 LTG DSNT N-SE P0015 T02110200
KANB 250004Z AUTO 23005KT 2 1/2SM +TSRA BR FEW007 BKN017 OVC026 21/21 A3007 RMK AO2 LTG DSNT ALQDS P0012 T02110206
KANB 242353Z AUTO 21008KT 3SM +TSRA BR FEW009 BKN013 OVC041 21/20 A3007 RMK AO2 PK WND 24027/2311 LTG DSNT ALQDS RAB06 TSB39 SLP177 P0037 60038 T02110200 10317 20211 53026
KANB 242345Z AUTO 24014G17KT 3SM +TSRA BR FEW010 BKN015 OVC037 21/20 A3007 RMK AO2 PK WND 24027/2311 LTG DSNT ALQDS RAB06 TSB39 P0028 T02110200
KANB 242327Z AUTO 24016G26KT 3SM VCTS RA BR SCT036 BKN044 OVC070 22/19 A3006 RMK AO2 PK WND 24027/2311 LTG DSNT S-NW RAB06 P0009 T02170194
KANB 242253Z AUTO 00000KT 10SM SCT070 BKN080 OVC110 26/23 A3002 RMK AO2 LTG DSNT SW AND W RAB2159E22 SLP155 P0001 T02610228
KANB 242153Z AUTO 12006G14KT 10SM FEW044 BKN060 OVC075 30/19 A3001 RMK AO2 LTG DSNT N SLP153 T03000194
KANB 242053Z AUTO 11006KT 10SM FEW046 SCT090 SCT100 30/21 A3000 RMK AO2 LTG DSNT N SLP148 T03000211 56023
KANB 242023Z AUTO 12009KT 10SM VCTS FEW055 FEW080 29/21 A3000 RMK AO2 LTG DSNT N AND NW T02940206
KANB 241953Z AUTO 10011G18KT 10SM SCT040 SCT055 30/21 A3001 RMK AO2 SLP150 T03000206
KANB 241853Z AUTO 12008KT 10SM CLR 29/21 A3003 RMK AO2 LTG DSNT W SLP158 T02940211
KANB 241753Z AUTO 14008KT 10SM FEW038 SCT085 29/21 A3007 RMK AO2 SLP171 T02890206 10317 20233 58010